Time;durP1;ratioP1;P1;durP2;ratioP2;P2;SDS_P1;SDS_P2;PMS_P1;PMS_P2;Temp;Humidity;BMP_temperature;BMP_pressure;BME280_temperature;BME280_humidity;BME280_pressure;Samples;Min_cycle;Max_cycle;Signal;HPM_P1;HPM_P2
2022/01/23 00:00:32;;;;;;;20.10;16.83;;;4.70;99.90;;;;;;5093707;28;20036;-77
2022/01/23 00:03:01;;;;;;;20.88;18.73;;;4.70;99.90;;;;;;5093618;28;20035;-77
2022/01/23 00:05:35;;;;;;;27.35;21.30;;;4.70;99.90;;;;;;5092955;28;20036;-78
2022/01/23 00:08:03;;;;;;;29.05;22.35;;;4.70;99.90;;;;;;5093848;28;20039;-77
2022/01/23 00:10:29;;;;;;;23.42;20.95;;;4.70;99.90;;;;;;5074121;28;20047;-78
2022/01/23 00:13:07;;;;;;;23.05;19.13;;;4.70;99.90;;;;;;5093055;28;20028;-77
2022/01/23 00:18:20;;;;;;;25.80;18.95;;;4.60;99.90;;;;;;5093353;28;20464;-78
2022/01/23 00:20:47;;;;;;;19.55;17.35;;;4.60;99.90;;;;;;5092456;28;20480;-78
2022/01/23 00:30:19;;;;;;;28.55;23.33;;;4.60;99.90;;;;;;5093272;28;20036;-78
2022/01/23 00:31:32;;;;;;;22.20;19.52;;;4.50;99.90;;;;;;5073089;28;20044;-79
2022/01/23 00:33:59;;;;;;;23.35;20.83;;;4.50;99.90;;;;;;5073678;28;20051;-78
2022/01/23 00:36:27;;;;;;;26.95;22.15;;;4.50;99.90;;;;;;5074222;28;20047;-79
2022/01/23 00:38:54;;;;;;;25.55;22.50;;;4.50;99.90;;;;;;5092708;28;20035;-77
2022/01/23 00:41:20;;;;;;;27.33;23.85;;;4.50;99.90;;;;;;5074087;28;20055;-77
2022/01/23 00:43:49;;;;;;;25.10;22.30;;;4.50;99.90;;;;;;5091873;28;20032;-77
2022/01/23 00:51:32;;;;;;;29.85;23.38;;;4.40;99.90;;;;;;5092263;28;20047;-78
2022/01/23 00:54:00;;;;;;;27.98;24.38;;;4.40;99.90;;;;;;5074527;28;20032;-78
2022/01/23 00:56:27;;;;;;;29.10;25.88;;;4.40;99.90;;;;;;5091623;28;20036;-80
2022/01/23 00:58:53;;;;;;;30.25;25.27;;;4.40;99.90;;;;;;5073508;28;20396;-78
2022/01/23 01:01:20;;;;;;;28.08;25.17;;;4.40;99.90;;;;;;5074024;28;20062;-78
2022/01/23 01:03:47;;;;;;;29.90;25.35;;;4.30;99.90;;;;;;5073161;28;20054;-78
2022/01/23 01:06:14;;;;;;;33.03;26.20;;;4.30;99.90;;;;;;5091657;28;20465;-78
2022/01/23 01:08:42;;;;;;;35.72;25.90;;;4.30;99.90;;;;;;5073286;28;20374;-79
2022/01/23 01:14:09;;;;;;;31.75;28.65;;;4.30;99.90;;;;;;5091432;28;20028;-79
2022/01/23 01:30:31;;;;;;;31.45;26.15;;;4.30;99.90;;;;;;5073520;28;20040;-78
2022/01/23 01:33:23;;;;;;;26.52;24.02;;;4.30;99.90;;;;;;5057375;28;20409;-78
2022/01/23 01:35:58;;;;;;;29.70;25.38;;;4.30;99.90;;;;;;5073102;28;20036;-78
2022/01/23 01:38:25;;;;;;;26.42;23.90;;;4.30;99.90;;;;;;5073957;28;20052;-78
2022/01/23 01:40:52;;;;;;;27.70;24.92;;;4.30;99.90;;;;;;5072232;28;20820;-78
2022/01/23 01:43:20;;;;;;;28.02;24.95;;;4.20;99.90;;;;;;5073580;28;20397;-78
2022/01/23 01:45:46;;;;;;;30.17;26.70;;;4.20;99.90;;;;;;5091275;28;20039;-78
2022/01/23 01:48:23;;;;;;;28.98;25.75;;;4.20;99.90;;;;;;5073971;28;20051;-78
2022/01/23 01:50:55;;;;;;;31.45;28.30;;;4.20;99.90;;;;;;5072674;28;20063;-78
2022/01/23 01:53:23;;;;;;;32.88;26.35;;;4.30;99.90;;;;;;5073529;28;20040;-78
2022/01/23 01:55:53;;;;;;;29.48;24.88;;;4.30;99.90;;;;;;5072363;28;20044;-78
2022/01/23 02:08:22;;;;;;;28.60;24.80;;;4.30;99.90;;;;;;5060737;28;20043;-79
2022/01/23 02:10:06;;;;;;;27.40;24.63;;;4.30;99.90;;;;;;5076604;28;20051;-77
2022/01/23 02:15:42;;;;;;;30.10;26.60;;;4.20;99.90;;;;;;5077211;28;20036;-77
2022/01/23 02:18:20;;;;;;;33.50;27.20;;;4.30;99.90;;;;;;5075961;28;20066;-77
2022/01/23 02:51:33;;;;;;;29.95;27.00;;;4.20;99.90;;;;;;5076140;28;20477;-75
2022/01/23 02:56:47;;;;;;;29.50;26.02;;;4.20;99.90;;;;;;5074940;28;20048;-76
2022/01/23 02:59:25;;;;;;;34.47;26.98;;;4.20;99.90;;;;;;5090865;28;20036;-75
2022/01/23 03:05:02;;;;;;;29.83;25.95;;;4.20;99.90;;;;;;5094237;28;20043;-75
2022/01/23 03:10:12;;;;;;;29.40;25.50;;;4.20;99.90;;;;;;5075777;28;20044;-76
2022/01/23 03:16:10;;;;;;;30.63;27.05;;;4.10;99.90;;;;;;5094481;28;20032;-76
2022/01/23 03:32:00;;;;;;;37.17;26.58;;;4.10;99.90;;;;;;5075431;28;20051;-77
2022/01/23 03:34:27;;;;;;;30.23;26.55;;;4.10;99.90;;;;;;5093861;28;20028;-76
2022/01/23 03:36:55;;;;;;;31.45;27.17;;;4.10;99.90;;;;;;5075187;28;20043;-76
2022/01/23 03:39:22;;;;;;;30.08;26.45;;;4.10;99.90;;;;;;5075893;28;20036;-76
2022/01/23 03:41:48;;;;;;;30.38;26.80;;;4.10;99.90;;;;;;5092592;28;20048;-76
2022/01/23 03:44:16;;;;;;;30.98;27.73;;;4.00;99.90;;;;;;5093827;28;20476;-76
2022/01/23 03:49:32;;;;;;;30.83;27.80;;;4.00;99.90;;;;;;5075011;28;20051;-77
2022/01/23 03:52:31;;;;;;;23.95;21.65;;;4.00;99.90;;;;;;5075519;28;20052;-77
2022/01/23 03:54:58;;;;;;;30.73;26.75;;;4.10;99.90;;;;;;5074115;28;20043;-77
2022/01/23 03:57:24;;;;;;;36.28;28.27;;;4.00;99.90;;;;;;5075117;28;20044;-77
2022/01/23 03:59:51;;;;;;;33.92;29.08;;;4.00;99.90;;;;;;5073709;28;20481;-77
2022/01/23 04:02:18;;;;;;;32.08;28.63;;;4.00;99.90;;;;;;5074853;28;20054;-77
2022/01/23 04:04:44;;;;;;;36.83;30.83;;;4.00;99.90;;;;;;5073799;28;20110;-77
2022/01/23 04:07:21;;;;;;;34.78;30.75;;;4.10;99.90;;;;;;5074902;28;20044;-77
2022/01/23 04:09:48;;;;;;;30.95;27.65;;;4.00;99.90;;;;;;5080921;28;20048;-78
2022/01/23 04:12:42;;;;;;;32.90;29.10;;;4.10;99.90;;;;;;5079339;28;20044;-77
2022/01/23 04:34:21;;;;;;;33.10;29.65;;;4.00;99.90;;;;;;5074054;28;20054;-76
2022/01/23 04:45:21;;;;;;;39.83;34.30;;;4.00;99.90;;;;;;5073402;28;20461;-75
2022/01/23 05:01:22;;;;;;;47.50;42.33;;;4.00;99.90;;;;;;5074194;28;20064;-77
2022/01/23 05:04:16;;;;;;;34.88;31.27;;;4.00;99.90;;;;;;5073450;28;20044;-77
2022/01/23 05:07:16;;;;;;;40.25;35.38;;;4.00;99.90;;;;;;5063980;28;20036;-77
2022/01/23 05:10:18;;;;;;;35.05;30.40;;;4.00;99.90;;;;;;5029726;28;20041;-77
2022/01/23 05:12:56;;;;;;;35.08;30.10;;;4.00;99.90;;;;;;5067604;28;20044;-77
2022/01/23 05:15:23;;;;;;;36.70;28.70;;;4.00;99.90;;;;;;5074580;28;20059;-77
2022/01/23 05:17:50;;;;;;;37.03;30.52;;;4.00;99.90;;;;;;5073000;28;20040;-77
2022/01/23 05:20:18;;;;;;;38.92;34.92;;;4.00;99.90;;;;;;5073650;28;20036;-76
2022/01/23 05:22:50;;;;;;;38.33;31.83;;;4.00;99.90;;;;;;5072805;28;20040;-77
2022/01/23 05:27:44;;;;;;;39.92;35.28;;;3.90;99.90;;;;;;5072609;28;20047;-78
2022/01/23 05:30:10;;;;;;;39.55;32.28;;;3.90;99.90;;;;;;5091839;28;20031;-76
2022/01/23 05:32:40;;;;;;;37.60;29.98;;;4.00;99.90;;;;;;5091891;28;20449;-77
2022/01/23 05:35:09;;;;;;;35.75;30.42;;;3.90;99.90;;;;;;5072933;28;20485;-77
2022/01/23 05:37:37;;;;;;;33.25;29.85;;;3.90;99.90;;;;;;5092033;28;20453;-77
2022/01/23 05:40:09;;;;;;;33.35;30.05;;;3.90;99.90;;;;;;5072698;28;20036;-77
2022/01/23 05:42:37;;;;;;;35.53;30.00;;;3.90;99.90;;;;;;5073261;28;20044;-77
2022/01/23 05:45:04;;;;;;;33.42;29.77;;;3.90;99.90;;;;;;5059602;28;20051;-77
2022/01/23 05:47:50;;;;;;;34.00;30.40;;;3.90;99.90;;;;;;5094932;28;20036;-77
2022/01/23 05:50:37;;;;;;;34.42;30.90;;;3.90;99.90;;;;;;5095608;28;20040;-77
2022/01/23 05:53:21;;;;;;;33.90;30.52;;;4.00;99.90;;;;;;5095565;28;20047;-77
2022/01/23 05:56:05;;;;;;;33.05;29.73;;;3.90;99.90;;;;;;5076311;28;20226;-77
2022/01/23 05:58:51;;;;;;;33.60;30.17;;;3.90;99.90;;;;;;5080301;28;20054;-77
2022/01/23 06:01:21;;;;;;;32.43;28.93;;;3.90;99.90;;;;;;5093938;28;20039;-77
2022/01/23 06:03:51;;;;;;;37.47;32.35;;;3.90;99.90;;;;;;5077980;28;20039;-77
2022/01/23 06:06:24;;;;;;;34.72;30.27;;;3.90;99.90;;;;;;5077718;28;20040;-77
2022/01/23 06:08:50;;;;;;;35.67;30.73;;;3.90;99.90;;;;;;5076149;28;20075;-77
2022/01/23 06:11:17;;;;;;;33.42;29.23;;;3.90;99.90;;;;;;5077271;28;20044;-77
2022/01/23 06:13:43;;;;;;;33.05;29.67;;;3.90;99.90;;;;;;5076875;28;20048;-76
2022/01/23 06:16:12;;;;;;;36.83;30.95;;;3.90;99.90;;;;;;5076086;28;20389;-76
2022/01/23 06:18:41;;;;;;;36.60;29.48;;;3.80;99.90;;;;;;5076727;28;20047;-76
2022/01/23 06:21:27;;;;;;;34.90;31.40;;;3.90;99.90;;;;;;5073550;28;20036;-76
2022/01/23 06:24:24;;;;;;;35.05;31.13;;;3.90;99.90;;;;;;5094944;28;20047;-76
2022/01/23 06:27:00;;;;;;;35.53;31.98;;;3.80;99.90;;;;;;5076139;28;20040;-76
2022/01/23 06:29:31;;;;;;;35.83;30.05;;;3.90;99.90;;;;;;5076492;28;20054;-76
2022/01/23 06:32:00;;;;;;;37.70;31.52;;;3.90;99.90;;;;;;5075989;28;20052;-76
2022/01/23 06:34:28;;;;;;;39.90;31.10;;;3.90;99.90;;;;;;5094875;28;20043;-76
2022/01/23 06:36:55;;;;;;;33.63;29.95;;;3.80;99.90;;;;;;5094464;28;20035;-76
2022/01/23 06:39:23;;;;;;;34.90;31.27;;;3.80;99.90;;;;;;5076432;28;20374;-76
2022/01/23 06:41:54;;;;;;;36.13;31.75;;;3.80;99.90;;;;;;5075682;28;20055;-76
2022/01/23 06:44:26;;;;;;;39.63;32.75;;;3.80;99.90;;;;;;5076623;28;20047;-76
2022/01/23 06:46:54;;;;;;;38.03;30.90;;;3.80;99.90;;;;;;5075996;28;20036;-76
2022/01/23 06:49:20;;;;;;;34.03;30.38;;;3.80;99.90;;;;;;5076117;28;20035;-76
2022/01/23 06:51:49;;;;;;;37.50;33.60;;;3.80;99.90;;;;;;5076243;28;20051;-78
2022/01/23 06:54:15;;;;;;;36.85;32.00;;;3.90;99.90;;;;;;5075637;28;20047;-76
2022/01/23 06:56:41;;;;;;;35.80;31.45;;;3.80;99.90;;;;;;5076026;28;20051;-77
2022/01/23 06:59:08;;;;;;;36.22;32.70;;;3.80;99.90;;;;;;5075532;28;20070;-76
2022/01/23 07:01:41;;;;;;;38.13;33.15;;;3.80;99.90;;;;;;5076204;28;20048;-76
2022/01/23 07:04:42;;;;;;;35.15;31.48;;;3.80;99.90;;;;;;5077776;28;20036;-76
2022/01/23 07:07:16;;;;;;;35.55;30.23;;;3.80;99.90;;;;;;5075531;28;20420;-76
2022/01/23 07:10:04;;;;;;;37.35;32.90;;;3.80;99.90;;;;;;5075608;28;20051;-76
2022/01/23 07:12:48;;;;;;;34.25;30.90;;;3.80;99.90;;;;;;5093993;28;20512;-79
2022/01/23 07:15:52;;;;;;;33.45;29.90;;;3.80;99.90;;;;;;5075070;28;20071;-79
2022/01/23 07:18:44;;;;;;;36.75;33.15;;;3.80;99.90;;;;;;5090849;28;20103;-77
2022/01/23 07:21:12;;;;;;;34.85;31.38;;;3.90;99.90;;;;;;5074870;28;20040;-77
2022/01/23 07:23:49;;;;;;;34.85;31.45;;;3.90;99.90;;;;;;5076092;28;20477;-77
2022/01/23 07:26:18;;;;;;;41.72;33.72;;;3.90;99.90;;;;;;5091863;28;20036;-77
2022/01/23 07:28:47;;;;;;;43.78;35.08;;;3.90;99.90;;;;;;5075632;28;20043;-77
2022/01/23 07:31:30;;;;;;;36.88;33.40;;;3.90;99.90;;;;;;5075454;28;20036;-77
2022/01/23 07:33:58;;;;;;;35.35;31.40;;;3.90;99.90;;;;;;5074851;28;20401;-78
2022/01/23 07:36:25;;;;;;;41.63;34.72;;;3.90;99.90;;;;;;5075487;28;20040;-77
2022/01/23 07:38:51;;;;;;;37.15;33.42;;;3.90;99.90;;;;;;5074856;28;20047;-80
2022/01/23 07:41:46;;;;;;;43.83;34.53;;;3.90;99.90;;;;;;5067315;28;20040;-77
2022/01/23 07:44:47;;;;;;;39.28;32.53;;;4.00;99.90;;;;;;5093346;28;20052;-77
2022/01/23 07:47:25;;;;;;;40.65;34.13;;;4.00;99.90;;;;;;5102960;28;20059;-77
2022/01/23 07:50:16;;;;;;;37.70;33.88;;;4.00;99.90;;;;;;5084415;28;20048;-78
2022/01/23 07:53:01;;;;;;;38.35;34.22;;;4.00;99.90;;;;;;5099824;28;20043;-77
2022/01/23 07:55:45;;;;;;;38.25;33.90;;;4.00;99.90;;;;;;5075419;28;20083;-77
2022/01/23 07:58:20;;;;;;;41.95;33.90;;;4.00;99.90;;;;;;5075325;28;20047;-78
2022/01/23 08:01:04;;;;;;;41.47;37.03;;;4.00;99.90;;;;;;5093198;28;20385;-77
2022/01/23 08:03:31;;;;;;;39.83;35.50;;;4.10;99.90;;;;;;5074580;28;20044;-77
2022/01/23 08:06:11;;;;;;;40.15;35.88;;;4.00;99.90;;;;;;5090363;28;20146;-77
2022/01/23 08:08:41;;;;;;;37.50;33.63;;;4.10;99.90;;;;;;5093432;28;20469;-77
2022/01/23 08:11:10;;;;;;;41.72;33.15;;;4.10;99.90;;;;;;5092814;28;20032;-77
2022/01/23 08:13:36;;;;;;;37.55;33.90;;;4.10;99.90;;;;;;5092483;28;20032;-78
2022/01/23 08:16:03;;;;;;;36.92;33.30;;;4.10;99.90;;;;;;5092659;28;20036;-78
2022/01/23 08:18:29;;;;;;;37.30;32.88;;;4.20;99.90;;;;;;5074518;28;20043;-77
2022/01/23 08:20:55;;;;;;;37.17;32.60;;;4.20;99.90;;;;;;5074294;28;20039;-80
2022/01/23 08:23:21;;;;;;;36.53;32.78;;;4.20;99.90;;;;;;5092990;28;20036;-77
2022/01/23 08:25:48;;;;;;;42.15;33.00;;;4.20;99.90;;;;;;5092474;28;20051;-77
2022/01/23 08:28:15;;;;;;;35.60;32.05;;;4.20;99.90;;;;;;5092125;28;20441;-77
2022/01/23 08:30:41;;;;;;;33.85;30.38;;;4.30;99.90;;;;;;5096212;28;20028;-78
2022/01/23 08:33:07;;;;;;;36.65;32.58;;;4.30;99.90;;;;;;5104732;28;20032;-78
2022/01/23 08:35:34;;;;;;;33.63;30.25;;;4.30;99.90;;;;;;5098068;28;20043;-78
2022/01/23 08:38:00;;;;;;;34.47;30.85;;;4.40;99.90;;;;;;5091795;28;20024;-78
2022/01/23 08:43:19;;;;;;;34.90;31.00;;;4.50;99.90;;;;;;5068307;28;20052;-76
2022/01/23 08:45:45;;;;;;;38.17;33.88;;;4.50;99.90;;;;;;5092378;28;20028;-76
2022/01/23 08:48:12;;;;;;;51.17;43.67;;;4.50;99.90;;;;;;5091468;28;20040;-76
2022/01/23 08:50:38;;;;;;;43.45;37.05;;;4.50;99.90;;;;;;5092292;28;20043;-77
2022/01/23 08:53:05;;;;;;;42.80;36.28;;;4.50;99.90;;;;;;5091791;28;20469;-76
2022/01/23 08:55:33;;;;;;;39.85;34.83;;;4.50;99.90;;;;;;5091755;28;20055;-73
2022/01/23 08:57:59;;;;;;;46.97;38.55;;;4.50;99.90;;;;;;5091612;28;20476;-74
2022/01/23 09:00:25;;;;;;;37.47;32.55;;;4.50;99.90;;;;;;5092369;28;20043;-73
2022/01/23 09:02:52;;;;;;;35.47;31.60;;;4.60;99.90;;;;;;5074261;28;20036;-73
2022/01/23 09:05:18;;;;;;;41.42;31.42;;;4.60;99.90;;;;;;5073311;28;20039;-73
2022/01/23 09:07:45;;;;;;;36.08;30.67;;;4.60;99.90;;;;;;5092356;28;20028;-73
2022/01/23 09:10:11;;;;;;;34.50;30.05;;;4.70;99.90;;;;;;5091450;28;20032;-73
2022/01/23 09:15:04;;;;;;;31.52;28.27;;;4.70;99.90;;;;;;5073318;28;20028;-73
2022/01/23 09:17:31;;;;;;;33.58;28.70;;;4.60;99.90;;;;;;5091312;28;20035;-73
2022/01/23 09:19:57;;;;;;;46.78;29.67;;;4.70;99.90;;;;;;5091475;28;20028;-75
2022/01/23 09:22:27;;;;;;;33.45;28.90;;;4.70;99.90;;;;;;5091848;28;20477;-73
2022/01/23 09:24:53;;;;;;;32.83;29.52;;;4.80;99.90;;;;;;5092003;28;20385;-73
2022/01/23 09:27:19;;;;;;;32.05;28.35;;;4.80;99.90;;;;;;5090924;28;20039;-73
2022/01/23 09:29:49;;;;;;;34.47;30.38;;;4.90;99.90;;;;;;5091846;28;20028;-73
2022/01/23 09:32:18;;;;;;;32.50;29.20;;;5.00;99.90;;;;;;5090579;28;20492;-73
2022/01/23 09:34:45;;;;;;;30.52;27.00;;;5.00;99.90;;;;;;5092051;28;20035;-74
2022/01/23 09:37:14;;;;;;;29.83;26.63;;;5.00;99.90;;;;;;5090889;28;20043;-73
2022/01/23 09:39:42;;;;;;;32.05;28.92;;;5.10;99.90;;;;;;5091681;28;20032;-73
2022/01/23 09:42:15;;;;;;;33.63;30.35;;;5.10;99.90;;;;;;5087886;28;20059;-73
2022/01/23 09:44:49;;;;;;;38.05;31.90;;;5.20;99.90;;;;;;5091474;28;20028;-73
2022/01/23 09:47:19;;;;;;;30.30;27.15;;;5.20;99.90;;;;;;5089600;28;20042;-74
2022/01/23 09:49:46;;;;;;;31.70;27.77;;;5.20;99.90;;;;;;5072153;28;20036;-73
2022/01/23 09:52:14;;;;;;;32.58;26.17;;;5.30;99.90;;;;;;5090438;28;20043;-74
2022/01/23 09:54:44;;;;;;;30.77;27.50;;;5.20;99.90;;;;;;5091027;28;20043;-73
2022/01/23 09:57:12;;;;;;;32.58;25.95;;;5.30;99.90;;;;;;5071776;28;20056;-74
2022/01/23 09:59:40;;;;;;;28.75;24.80;;;5.40;99.90;;;;;;5091570;28;20036;-73
2022/01/23 10:02:08;;;;;;;29.48;25.33;;;5.50;99.90;;;;;;5090824;28;20043;-73
2022/01/23 10:04:34;;;;;;;33.40;27.30;;;5.50;99.90;;;;;;5091750;28;20138;-74
2022/01/23 10:07:05;;;;;;;27.40;24.75;;;5.60;99.90;;;;;;5091108;28;20028;-76
2022/01/23 10:09:32;;;;;;;28.83;25.48;;;5.50;99.90;;;;;;5091301;28;20028;-74
2022/01/23 10:11:58;;;;;;;32.05;25.80;;;5.60;99.90;;;;;;5091260;28;20036;-75
2022/01/23 10:14:24;;;;;;;32.97;26.00;;;5.70;99.90;;;;;;5090239;28;20043;-74
2022/01/23 10:16:51;;;;;;;33.05;24.58;;;5.80;99.90;;;;;;5091511;28;20051;-74
2022/01/23 10:19:17;;;;;;;28.20;25.17;;;5.80;99.90;;;;;;5072690;28;20110;-74
2022/01/23 10:21:45;;;;;;;27.58;24.10;;;5.80;99.90;;;;;;5090784;28;20040;-74
2022/01/23 10:24:13;;;;;;;27.77;24.83;;;5.80;99.90;;;;;;5090611;28;20039;-75
2022/01/23 10:26:53;;;;;;;32.47;22.83;;;5.70;99.90;;;;;;5091330;28;20381;-75
2022/01/23 10:29:21;;;;;;;26.70;23.85;;;5.80;99.90;;;;;;5073237;28;20043;-75
2022/01/23 10:32:14;;;;;;;30.23;24.23;;;5.80;99.90;;;;;;5076733;28;20431;-75
2022/01/23 10:34:51;;;;;;;26.23;23.58;;;5.80;99.90;;;;;;5095036;28;20036;-75
2022/01/23 10:37:32;;;;;;;34.85;23.45;;;5.80;99.90;;;;;;5094370;28;20032;-74
2022/01/23 10:39:59;;;;;;;;;;;5.90;99.90;;;;;;5095027;28;20051;-75
2022/01/23 10:48:11;;;;;;;26.23;23.13;;;5.80;99.90;;;;;;5095201;28;20028;-75
2022/01/23 10:50:37;;;;;;;27.88;24.48;;;5.80;99.90;;;;;;5094946;28;20036;-75
2022/01/23 10:53:03;;;;;;;40.88;23.77;;;5.90;99.90;;;;;;5094212;28;20036;-78
2022/01/23 10:55:32;;;;;;;29.33;26.08;;;6.00;99.90;;;;;;5075205;28;20043;-74
2022/01/23 10:58:02;;;;;;;28.80;23.65;;;6.00;99.90;;;;;;5075455;28;20047;-75
2022/01/23 11:00:35;;;;;;;28.85;23.90;;;5.90;99.90;;;;;;5093673;28;20420;-74
2022/01/23 11:03:16;;;;;;;29.73;24.42;;;6.00;99.90;;;;;;5094902;28;20028;-76
2022/01/23 11:05:44;;;;;;;30.38;24.73;;;6.00;99.90;;;;;;5095283;28;20453;-75
2022/01/23 11:08:32;;;;;;;27.83;23.77;;;5.90;99.90;;;;;;5093909;28;20028;-75
2022/01/23 11:11:07;;;;;;;31.33;23.90;;;5.90;99.90;;;;;;5095024;28;20040;-75
2022/01/23 11:19:16;;;;;;;30.05;23.00;;;6.00;99.90;;;;;;5093607;28;20036;-74
2022/01/23 11:21:43;;;;;;;24.23;21.63;;;6.00;99.90;;;;;;5093997;28;20031;-75
2022/01/23 11:24:12;;;;;;;35.40;22.83;;;5.90;99.90;;;;;;5093622;28;20032;-75
2022/01/23 11:26:39;;;;;;;27.42;22.92;;;5.90;99.90;;;;;;5075803;28;20040;-76
2022/01/23 11:29:10;;;;;;;25.23;22.48;;;5.90;99.90;;;;;;5093713;28;20028;-78
2022/01/23 11:31:38;;;;;;;29.10;23.35;;;6.00;99.90;;;;;;5093955;28;20032;-74
2022/01/23 11:34:07;;;;;;;26.00;23.13;;;6.00;99.90;;;;;;5093479;28;20032;-77
2022/01/23 11:36:34;;;;;;;27.23;22.63;;;6.00;99.90;;;;;;5093630;28;20040;-73
2022/01/23 11:39:11;;;;;;;31.50;24.65;;;6.00;99.90;;;;;;5094052;28;20032;-73
2022/01/23 11:56:40;;;;;;;23.05;20.75;;;6.00;99.90;;;;;;5092832;28;20373;-79
2022/01/23 11:59:33;;;;;;;27.80;22.27;;;5.90;99.90;;;;;;5073915;28;20040;-75
2022/01/23 12:02:11;;;;;;;24.52;20.77;;;6.10;99.90;;;;;;5093811;28;20043;-77
2022/01/23 12:04:43;;;;;;;24.15;21.63;;;6.10;99.90;;;;;;5093442;28;20032;-75
2022/01/23 12:07:10;;;;;;;28.95;21.50;;;6.20;99.90;;;;;;5074098;28;20051;-77
2022/01/23 12:09:38;;;;;;;26.13;21.48;;;6.20;99.90;;;;;;5074740;28;20511;-75
2022/01/23 12:12:46;;;;;;;29.15;23.00;;;6.10;99.90;;;;;;5093167;28;20028;-75
2022/01/23 12:18:21;;;;;;;23.85;21.38;;;6.20;99.90;;;;;;5093334;28;20040;-74
2022/01/23 12:20:50;;;;;;;24.30;20.17;;;6.20;99.90;;;;;;5093087;28;20024;-76
2022/01/23 12:23:18;;;;;;;25.27;20.88;;;6.20;99.90;;;;;;5092201;28;20035;-77
2022/01/23 12:25:50;;;;;;;27.52;20.65;;;6.20;99.90;;;;;;5092428;28;20023;-75
2022/01/23 12:28:32;;;;;;;27.92;23.45;;;6.30;99.90;;;;;;5074224;28;20047;-74
2022/01/23 12:31:01;;;;;;;26.55;22.50;;;6.40;99.90;;;;;;5093065;28;20036;-76
2022/01/23 12:33:40;;;;;;;28.50;22.42;;;6.40;99.60;;;;;;5092021;28;20036;-75
2022/01/23 12:36:19;;;;;;;24.48;21.55;;;6.50;99.60;;;;;;5093001;28;20035;-76
2022/01/23 12:38:48;;;;;;;22.85;20.38;;;6.60;98.90;;;;;;5093098;28;20039;-76
2022/01/23 12:41:23;;;;;;;23.30;20.70;;;6.50;98.60;;;;;;5092556;28;20032;-75
2022/01/23 12:43:59;;;;;;;25.60;22.15;;;6.60;98.80;;;;;;5092993;28;20032;-76
2022/01/23 12:46:30;;;;;;;24.98;21.88;;;6.50;98.40;;;;;;5092412;28;20039;-75
2022/01/23 12:48:56;;;;;;;32.85;21.55;;;6.50;98.80;;;;;;5093085;28;20051;-76
2022/01/23 12:51:23;;;;;;;29.05;23.08;;;6.60;98.70;;;;;;5092384;28;20035;-76
2022/01/23 12:53:49;;;;;;;25.60;21.58;;;6.70;98.40;;;;;;5059468;28;20500;-76
2022/01/23 12:56:21;;;;;;;22.63;19.33;;;6.90;98.30;;;;;;5094996;28;20040;-76
2022/01/23 12:58:58;;;;;;;21.80;19.00;;;7.00;97.20;;;;;;5093785;28;20035;-75
2022/01/23 13:01:27;;;;;;;20.92;18.23;;;7.00;96.70;;;;;;5092237;28;20484;-76
2022/01/23 13:04:03;;;;;;;22.65;17.63;;;6.90;96.40;;;;;;5074203;28;20473;-76
2022/01/23 13:06:42;;;;;;;23.33;19.67;;;6.70;96.20;;;;;;5092309;28;20639;-77
2022/01/23 13:14:52;;;;;;;18.75;16.85;;;6.80;96.40;;;;;;5091938;28;20358;-76
2022/01/23 13:18:49;;;;;;;22.70;15.75;;;6.90;95.60;;;;;;5092404;28;20062;-77
2022/01/23 13:32:15;;;;;;;30.50;25.02;;;6.90;94.60;;;;;;5092496;28;20468;-77
2022/01/23 13:34:49;;;;;;;20.95;18.42;;;6.80;94.20;;;;;;5092320;28;20040;-75
2022/01/23 13:37:24;;;;;;;19.17;15.40;;;6.90;94.70;;;;;;5091428;28;20048;-76
2022/01/23 13:40:02;;;;;;;19.73;17.65;;;6.90;93.60;;;;;;5092099;28;20489;-76
2022/01/23 13:53:33;;;;;;;22.92;17.65;;;7.00;94.20;;;;;;5091385;28;20032;-75
2022/01/23 13:58:53;;;;;;;20.98;18.92;;;6.90;94.10;;;;;;5091943;28;20047;-76
2022/01/23 14:03:53;;;;;;;23.45;19.75;;;7.10;94.60;;;;;;5092009;28;20043;-76
2022/01/23 14:06:20;;;;;;;23.77;19.50;;;7.10;94.00;;;;;;5095334;28;20380;-76
2022/01/23 14:09:10;;;;;;;26.23;16.90;;;7.10;94.00;;;;;;5096120;28;20350;-77
2022/01/23 14:11:36;;;;;;;17.40;15.73;;;7.10;92.90;;;;;;5095224;28;20032;-77
2022/01/23 14:14:13;;;;;;;22.00;17.10;;;7.10;92.70;;;;;;5095426;28;20036;-76
2022/01/23 14:16:40;;;;;;;24.10;16.73;;;7.10;93.20;;;;;;5095636;28;20423;-76
2022/01/23 14:19:35;;;;;;;25.55;19.33;;;7.00;93.10;;;;;;5095644;28;20444;-74
2022/01/23 14:22:01;;;;;;;21.02;17.65;;;7.00;93.40;;;;;;5087172;28;20472;-77
2022/01/23 14:24:36;;;;;;;24.23;21.75;;;7.00;93.60;;;;;;5076266;28;20071;-76
2022/01/23 14:27:13;;;;;;;20.02;18.02;;;7.00;93.70;;;;;;5095575;28;20496;-76
2022/01/23 14:29:54;;;;;;;21.48;17.20;;;7.00;93.90;;;;;;5095654;28;20039;-76
2022/01/23 14:32:35;;;;;;;25.77;17.95;;;7.00;92.40;;;;;;5094622;28;20042;-76
2022/01/23 14:35:11;;;;;;;20.02;17.88;;;6.90;92.00;;;;;;5095100;28;20035;-77
2022/01/23 14:37:39;;;;;;;20.50;16.35;;;6.80;92.20;;;;;;5076233;28;20040;-78
2022/01/23 14:40:17;;;;;;;22.75;18.15;;;6.80;92.60;;;;;;5095123;28;20059;-76
2022/01/23 14:43:04;;;;;;;19.23;16.60;;;6.70;92.80;;;;;;5094963;28;20036;-75
2022/01/23 14:45:37;;;;;;;19.67;17.33;;;6.70;92.90;;;;;;5094351;28;20032;-76
2022/01/23 14:48:05;;;;;;;19.05;15.85;;;6.70;93.00;;;;;;5076901;28;20028;-75
2022/01/23 14:50:35;;;;;;;24.50;16.55;;;6.70;92.70;;;;;;5094180;28;20028;-75
2022/01/23 14:53:14;;;;;;;22.80;15.75;;;6.70;92.80;;;;;;5095169;28;20492;-75
2022/01/23 14:55:44;;;;;;;17.27;13.18;;;6.70;92.50;;;;;;5094318;28;20051;-75
2022/01/23 14:58:13;;;;;;;14.67;12.80;;;6.70;91.80;;;;;;5095112;28;20150;-75
2022/01/23 15:00:40;;;;;;;16.48;12.60;;;6.70;91.70;;;;;;5094109;28;20060;-75
2022/01/23 15:03:07;;;;;;;20.75;14.20;;;6.70;91.50;;;;;;5094938;28;20381;-76
2022/01/23 15:05:37;;;;;;;21.23;13.52;;;6.70;91.70;;;;;;5094009;28;20032;-76
2022/01/23 15:08:07;;;;;;;14.68;13.02;;;6.60;91.80;;;;;;5094158;28;20039;-76
2022/01/23 15:10:36;;;;;;;18.17;13.68;;;6.60;91.40;;;;;;5093790;28;20465;-76
2022/01/23 15:13:04;;;;;;;13.05;11.88;;;6.60;91.60;;;;;;5094582;28;20039;-76
2022/01/23 15:15:31;;;;;;;20.63;15.15;;;6.60;91.80;;;;;;5093380;28;20047;-75
2022/01/23 15:17:57;;;;;;;15.27;12.57;;;6.60;91.80;;;;;;5094182;28;20465;-75
2022/01/23 15:20:24;;;;;;;13.60;12.23;;;6.60;91.90;;;;;;5093593;28;20032;-75
2022/01/23 15:22:50;;;;;;;19.80;13.63;;;6.60;92.10;;;;;;5094396;28;20048;-74
2022/01/23 15:25:18;;;;;;;17.80;14.32;;;6.60;92.00;;;;;;5094288;28;20036;-74
2022/01/23 15:27:46;;;;;;;14.70;13.25;;;6.60;92.10;;;;;;5093880;28;20039;-75
2022/01/23 15:30:16;;;;;;;14.07;12.35;;;6.60;92.10;;;;;;5094104;28;20043;-74
2022/01/23 15:32:44;;;;;;;13.98;12.23;;;6.50;92.20;;;;;;5093189;28;20393;-75
2022/01/23 15:35:12;;;;;;;16.05;12.68;;;6.50;92.20;;;;;;5093517;28;20043;-74
2022/01/23 15:37:39;;;;;;;18.58;13.20;;;6.50;92.30;;;;;;5093277;28;20040;-77
2022/01/23 15:40:07;;;;;;;16.20;14.18;;;6.40;92.50;;;;;;5094031;28;20040;-74
2022/01/23 15:42:33;;;;;;;17.05;13.32;;;6.40;92.60;;;;;;5093337;28;20028;-74
2022/01/23 15:44:59;;;;;;;18.63;14.55;;;6.40;92.70;;;;;;5093757;28;20039;-75
2022/01/23 15:47:26;;;;;;;17.00;14.80;;;6.40;92.90;;;;;;5093059;28;20028;-75
2022/01/23 15:49:52;;;;;;;16.65;15.13;;;6.30;93.00;;;;;;5093635;28;20024;-75
2022/01/23 15:52:18;;;;;;;18.88;15.57;;;6.40;93.20;;;;;;5093779;28;20035;-75
2022/01/23 15:54:46;;;;;;;17.70;15.10;;;6.30;93.20;;;;;;5093541;28;20035;-75
2022/01/23 15:57:12;;;;;;;17.23;14.57;;;6.30;93.30;;;;;;5093572;28;20062;-75
2022/01/23 15:59:38;;;;;;;21.48;16.35;;;6.30;93.50;;;;;;5092895;28;20042;-76
2022/01/23 16:02:07;;;;;;;17.65;15.77;;;6.20;93.60;;;;;;5093457;28;20024;-75
2022/01/23 16:04:37;;;;;;;19.25;15.70;;;6.20;93.80;;;;;;5074865;28;20042;-75
2022/01/23 16:07:16;;;;;;;17.10;14.73;;;6.20;94.00;;;;;;5093193;28;20028;-76
2022/01/23 16:09:47;;;;;;;21.73;15.32;;;6.20;94.00;;;;;;5092744;28;20039;-75
2022/01/23 16:12:15;;;;;;;16.13;14.57;;;6.10;94.30;;;;;;5093625;28;20028;-76
2022/01/23 16:14:42;;;;;;;18.08;16.17;;;6.10;94.70;;;;;;5092678;28;20393;-75
2022/01/23 16:17:08;;;;;;;19.55;16.55;;;6.10;94.40;;;;;;5093588;28;20028;-75
2022/01/23 16:19:35;;;;;;;20.98;15.55;;;6.10;94.70;;;;;;5092877;28;20488;-76
2022/01/23 16:22:01;;;;;;;19.95;15.00;;;6.10;94.80;;;;;;5074675;28;20047;-75
2022/01/23 16:24:28;;;;;;;17.92;16.00;;;6.00;95.00;;;;;;5092725;28;20085;-75
2022/01/23 16:26:56;;;;;;;18.08;16.25;;;6.00;95.10;;;;;;5093015;28;20055;-75
2022/01/23 16:29:25;;;;;;;24.63;19.30;;;6.00;95.30;;;;;;5092257;28;20028;-76
2022/01/23 16:31:59;;;;;;;19.80;17.52;;;6.00;95.30;;;;;;5092821;28;20036;-76
2022/01/23 16:34:28;;;;;;;22.55;17.13;;;6.00;95.40;;;;;;5073719;28;20059;-76